Terminal Aerodrome Forecast
Issued by NWS San Angelo, TX

Home | Current Version | Previous Version | Text Only | Print | Product List | Glossary On
Versions: 1 2 3 4 5 6 7 8 9 10 11 12 13 14 15 16 17 18 19 20 21 22
000
FTUS44 KSJT 191800 AAA
TAFSJT
TAF AMD
KSJT 191810Z 1918/2018 08007KT P6SM VCSH OVC009
     FM191900 10007KT P6SM SCT015 BKN025
     FM191930 11007KT P6SM VCTS SCT025 BKN035CB
     FM192100 11007KT P6SM VCTS BKN040CB
     FM200200 13006KT P6SM BKN080
     FM200900 15005KT P6SM OVC009
     FM201500 15006KT P6SM BKN015=

USA.gov is the U.S. government's official web portal to all federal, state and local government web resources and services.